Sydney Regional Office, New South Wales

7:48 PM AEST on July 02, 2015 (GMT +1000)
Thames st wharf Balmain | | Change Station
CLOSE
Current Station
Personal Weather Station
Location: Balmain, NEW SOUTH WALES
Elevation: 26 ft
Nearby Weather Stations

Elev 26 ft 33.86 °S, 151.19 °E | Updated 23 seconds ago

Scattered Clouds
Scattered Clouds
54.3 °F
Feels Like 54.3 °F
N
0.2
Wind Variable Wind from ESE
Gusts 2.5 mph

Today
High -- | Low -- °F
--% Chance of Precip.
Yesterday
High -- | Low -- °F
Precip. -- in
7:00 AM 4:57 PM
Full, 100% visible
Pressure 30.15 in
Visibility 6.2 miles
Clouds Few 4000 ft
Scattered Clouds 7000 ft
Dew Point 33 °F
Humidity 45%
Rainfall 0.00 in
Snow Depth Not available.
UV 0.0 out of 12
Pollen Not available.
Air Quality Not available.
Flu Activity Not available.
METAR YSSY 020930Z 22017KT 9999 FEW040 SCT070 12/03 Q1021 FM0930 MOD TURB BLW 5000FT

More Conditions Fewer Conditions

Pressure 30.15 in
Visibility 6.2 miles
Clouds Few 4000 ft
Scattered Clouds 7000 ft
Dew Point 33 °F
Humidity 45%
Rainfall 0.00 in
Snow Depth Not available.
UV 0.0 out of 12
Pollen Not available.
Air Quality Not available.
Flu Activity Not available.
METAR YSSY 020930Z 22017KT 9999 FEW040 SCT070 12/03 Q1021 FM0930 MOD TURB BLW 5000FT

More Conditions Fewer Conditions

10-Day Weather Forecast

×

Almanac

Astronomy

Jul. 02, 2015 Rise Set
Actual Time
Civil Twilight
Nautical Twilight
Astronomical Twilight
Moon
Length of Visible Light
Length of Day
Tomorrow will be .
, % of the Moon is Illuminated

Today's Extremes

Country Highs Country Lows

Community

WunderPhotos

Upload Photos

1,834,434 photos uploaded!

WunderBlogs® & News

Nearby

Air Quality

  Air Quality AQ Index Pollutant
Not available.

Snow Depth

Station Depth Elevation

Earthquake Activity

City Distance Mag. Time & Date
Minimum magnitude displayed is 2.5.

Coastal Water Temperatures

Place Temperature

Stations

Nearby Weather Stations

Station Location Temp. Windchill Dew Point Humidity Wind Precip. Elev Updated Type